Time;durP1;ratioP1;P1;durP2;ratioP2;P2;SDS_P1;SDS_P2;PMS_P1;PMS_P2;Temp;Humidity;BMP_temperature;BMP_pressure;BME280_temperature;BME280_humidity;BME280_pressure;Samples;Min_cycle;Max_cycle;Signal;HPM_P1;HPM_P2
2022/03/24 00:01:29;;;;;;;31.55;14.45;;;;;;;2.71;100.00;101052.69;5011314;28;20109;-70
2022/03/24 00:03:54;;;;;;;21.88;11.95;;;;;;;2.57;100.00;101054.91;5011083;28;20570;-70
2022/03/24 00:06:20;;;;;;;28.88;11.55;;;;;;;2.82;100.00;101041.19;5027843;28;20117;-69
2022/03/24 00:08:46;;;;;;;22.95;10.63;;;;;;;2.41;100.00;101040.31;5017867;28;20037;-70
2022/03/24 00:11:11;;;;;;;30.52;14.82;;;;;;;2.40;100.00;101026.94;5011082;28;20033;-70
2022/03/24 00:13:37;;;;;;;30.13;16.10;;;;;;;2.53;100.00;101036.44;5016835;28;20036;-70
2022/03/24 00:16:04;;;;;;;28.83;15.70;;;;;;;2.54;100.00;100977.88;5031191;28;20025;-69
2022/03/24 00:18:31;;;;;;;25.23;14.50;;;;;;;2.34;100.00;101025.94;5031074;28;20110;-70
2022/03/24 00:20:57;;;;;;;22.23;12.65;;;;;;;1.64;100.00;100971.69;5014683;28;20066;-70
2022/03/24 00:23:23;;;;;;;25.38;11.32;;;;;;;1.02;100.00;100858.28;5010976;28;20115;-69
2022/03/24 00:25:49;;;;;;;23.00;11.80;;;;;;;2.39;100.00;101011.84;5011116;28;20040;-70
2022/03/24 00:28:15;;;;;;;20.00;10.95;;;;;;;1.97;100.00;100986.66;5010786;28;20042;-69
2022/03/24 00:30:40;;;;;;;17.63;9.55;;;;;;;2.84;100.00;100996.88;5010930;28;20036;-70
2022/03/24 00:33:07;;;;;;;16.65;8.75;;;;;;;2.39;100.00;101000.16;5035499;28;20045;-70
2022/03/24 00:35:32;;;;;;;19.98;8.68;;;;;;;2.41;100.00;100939.97;5016458;28;20091;-70
2022/03/24 00:37:58;;;;;;;21.17;8.23;;;;;;;2.32;100.00;100969.88;5014216;28;20404;-70
2022/03/24 00:40:23;;;;;;;14.95;7.28;;;;;;;2.34;100.00;100956.56;5009162;28;20053;-70
2022/03/24 00:42:49;;;;;;;18.70;9.48;;;;;;;2.08;100.00;100974.38;5031399;28;20115;-71
2022/03/24 00:45:14;;;;;;;22.27;12.75;;;;;;;2.25;100.00;100985.63;5050574;28;20469;-70
2022/03/24 00:47:43;;;;;;;20.95;12.25;;;;;;;2.13;100.00;100985.34;5035000;28;20475;-70
2022/03/24 00:50:10;;;;;;;19.90;10.77;;;;;;;2.26;100.00;100992.31;5030596;28;20034;-70
2022/03/24 00:52:41;;;;;;;21.35;10.60;;;;;;;2.67;100.00;100974.78;5030601;28;20026;-70
2022/03/24 00:55:08;;;;;;;19.08;11.27;;;;;;;2.01;100.00;100980.06;5029024;28;20030;-70
2022/03/24 00:57:33;;;;;;;17.90;10.35;;;;;;;1.70;100.00;100976.84;5030880;28;20033;-70
2022/03/24 00:59:59;;;;;;;19.50;11.55;;;;;;;2.42;100.00;100971.75;5030556;28;20021;-69
2022/03/24 01:02:31;;;;;;;19.23;9.83;;;;;;;2.20;100.00;100969.63;4614816;22;10002944;-70
2022/03/24 01:04:56;;;;;;;20.77;11.43;;;;;;;2.33;100.00;100971.59;5035014;28;20337;-71
2022/03/24 01:07:23;;;;;;;24.85;13.00;;;;;;;2.16;100.00;100935.28;5034475;28;20116;-71
2022/03/24 01:09:49;;;;;;;23.60;13.25;;;;;;;1.92;100.00;100969.84;5034517;28;20559;-71
2022/03/24 01:12:14;;;;;;;27.55;15.18;;;;;;;2.00;100.00;100925.72;5034345;28;20026;-72
2022/03/24 01:14:39;;;;;;;33.47;18.20;;;;;;;1.74;100.00;100930.16;5033000;28;20032;-72
2022/03/24 01:17:07;;;;;;;35.35;20.45;;;;;;;2.12;100.00;100949.38;5033773;28;20041;-68
2022/03/24 01:19:33;;;;;;;34.42;20.02;;;;;;;1.74;100.00;100956.06;5034330;28;20041;-72
2022/03/24 01:22:00;;;;;;;38.15;21.02;;;;;;;1.12;100.00;100950.34;5034230;28;20032;-71
2022/03/24 01:24:25;;;;;;;29.40;16.45;;;;;;;1.57;100.00;100917.25;5034077;28;20039;-71
2022/03/24 01:26:51;;;;;;;30.73;15.90;;;;;;;1.10;100.00;100916.91;5033610;28;20112;-71
2022/03/24 01:29:17;;;;;;;26.27;13.82;;;;;;;1.94;100.00;100930.59;5034020;28;20037;-71
2022/03/24 01:31:43;;;;;;;28.02;14.80;;;;;;;1.34;100.00;100905.84;5032399;28;20547;-68
2022/03/24 01:34:09;;;;;;;31.17;14.95;;;;;;;1.38;100.00;100940.16;5033849;28;20076;-71
2022/03/24 01:36:35;;;;;;;25.92;12.32;;;;;;;1.19;100.00;100877.09;5034031;28;20040;-71
2022/03/24 01:39:00;;;;;;;18.92;9.68;;;;;;;1.39;100.00;100933.47;5033936;28;20089;-69
2022/03/24 01:41:26;;;;;;;24.85;11.65;;;;;;;1.04;100.00;100902.59;5033887;28;20030;-70
2022/03/24 01:43:51;;;;;;;28.38;11.60;;;;;;;1.00;100.00;100905.81;5033616;28;20117;-70
2022/03/24 01:46:23;;;;;;;19.13;10.15;;;;;;;1.72;100.00;100931.78;5033151;28;20495;-71
2022/03/24 01:48:49;;;;;;;25.20;10.75;;;;;;;1.13;100.00;100934.53;5033559;28;20073;-71
2022/03/24 01:51:14;;;;;;;23.77;10.43;;;;;;;1.15;100.00;100916.22;5033180;28;20458;-70
2022/03/24 01:53:40;;;;;;;24.15;10.43;;;;;;;0.97;100.00;100897.41;5032042;28;20077;-70
2022/03/24 01:56:07;;;;;;;21.45;9.30;;;;;;;1.12;100.00;100926.16;5031841;28;20029;-71
2022/03/24 01:58:36;;;;;;;20.00;8.30;;;;;;;1.32;100.00;100924.16;5033389;28;20450;-72
2022/03/24 02:01:27;;;;;;;16.98;7.43;;;;;;;1.81;100.00;100918.59;5032339;28;20437;-71
2022/03/24 02:03:54;;;;;;;15.30;6.40;;;;;;;1.58;100.00;100878.88;5033529;28;20053;-71
2022/03/24 02:06:19;;;;;;;16.05;7.65;;;;;;;0.90;100.00;100893.88;5033635;28;20133;-71
2022/03/24 02:08:45;;;;;;;24.33;7.60;;;;;;;1.65;100.00;100927.44;5034075;28;20033;-71
2022/03/24 02:11:11;;;;;;;14.93;6.30;;;;;;;1.46;100.00;100921.16;5033701;28;20030;-71
2022/03/24 02:13:37;;;;;;;16.48;6.43;;;;;;;1.52;100.00;100912.94;5033236;28;20045;-71
2022/03/24 02:16:10;;;;;;;14.60;7.00;;;;;;;1.50;100.00;100915.41;5033500;28;20461;-71
2022/03/24 02:18:35;;;;;;;17.67;7.32;;;;;;;0.92;100.00;100926.44;5033585;28;20037;-71
2022/03/24 02:21:01;;;;;;;18.67;6.97;;;;;;;1.03;100.00;100915.06;5033590;28;20462;-70
2022/03/24 02:23:26;;;;;;;12.75;6.68;;;;;;;0.98;100.00;100887.41;5033429;28;20487;-71
2022/03/24 02:25:54;;;;;;;14.85;6.40;;;;;;;0.35;100.00;100889.09;5032998;28;20108;-70
2022/03/24 02:28:23;;;;;;;14.55;6.30;;;;;;;0.70;100.00;100902.53;5033163;28;20098;-70
2022/03/24 02:30:50;;;;;;;13.35;5.63;;;;;;;0.96;100.00;100909.06;5032857;28;20036;-70
2022/03/24 02:33:21;;;;;;;14.63;5.80;;;;;;;0.42;100.00;100893.44;5032923;28;20108;-70
2022/03/24 02:35:48;;;;;;;19.45;6.40;;;;;;;0.27;100.00;100919.66;5033071;28;20069;-70
2022/03/24 02:38:14;;;;;;;12.27;5.85;;;;;;;0.54;100.00;100887.91;5032817;28;20064;-70
2022/03/24 02:40:40;;;;;;;12.13;6.05;;;;;;;-0.20;100.00;100865.84;5032914;28;20030;-71
2022/03/24 02:43:05;;;;;;;10.45;5.97;;;;;;;0.01;100.00;100883.94;5033103;28;20418;-70
2022/03/24 02:45:31;;;;;;;14.88;5.20;;;;;;;0.29;100.00;100863.06;5032559;28;20080;-69
2022/03/24 02:47:56;;;;;;;11.73;5.45;;;;;;;0.40;100.00;100910.03;5032974;28;20040;-70
2022/03/24 02:50:22;;;;;;;11.93;6.40;;;;;;;0.81;100.00;100896.97;5032725;28;20026;-71
2022/03/24 02:52:47;;;;;;;16.33;7.35;;;;;;;-0.01;100.00;100905.53;5032517;28;20029;-71
2022/03/24 02:55:13;;;;;;;16.92;7.90;;;;;;;0.43;100.00;100900.16;5032344;28;20034;-72
2022/03/24 02:57:38;;;;;;;14.68;8.20;;;;;;;0.61;100.00;100879.78;5017066;28;20034;-71
2022/03/24 03:00:05;;;;;;;16.25;9.00;;;;;;;0.47;100.00;100899.44;5013273;28;20523;-71
2022/03/24 03:02:31;;;;;;;22.45;10.45;;;;;;;0.25;100.00;100876.28;5031536;28;20045;-71
2022/03/24 03:04:56;;;;;;;20.23;9.77;;;;;;;0.84;100.00;100894.59;5032107;28;20115;-70
2022/03/24 03:07:22;;;;;;;17.42;10.43;;;;;;;0.64;100.00;100868.19;5031773;28;20029;-71
2022/03/24 03:09:48;;;;;;;19.67;10.43;;;;;;;0.55;100.00;100862.97;5031858;28;20116;-70
2022/03/24 03:12:16;;;;;;;23.98;13.98;;;;;;;0.77;100.00;100896.88;5031897;28;20029;-71
2022/03/24 03:14:41;;;;;;;19.65;12.45;;;;;;;0.29;100.00;100880.56;5031596;28;20407;-71
2022/03/24 03:17:08;;;;;;;20.55;11.38;;;;;;;0.42;100.00;100860.94;5031720;28;20042;-71
2022/03/24 03:19:34;;;;;;;22.88;12.80;;;;;;;0.27;100.00;100854.69;5032054;28;20052;-71
2022/03/24 03:22:00;;;;;;;22.33;11.30;;;;;;;0.57;100.00;100888.88;5031068;28;20030;-71
2022/03/24 03:24:26;;;;;;;20.95;10.73;;;;;;;0.02;100.00;100868.13;5031468;28;20037;-71
2022/03/24 03:26:52;;;;;;;21.48;11.63;;;;;;;-0.09;100.00;100832.88;5031213;28;20033;-71
2022/03/24 03:29:18;;;;;;;23.33;10.85;;;;;;;0.20;100.00;100867.81;5031384;28;20026;-70
2022/03/24 03:31:44;;;;;;;22.15;11.77;;;;;;;-0.11;100.00;100891.06;5030289;28;20021;-71
2022/03/24 03:34:11;;;;;;;23.20;12.65;;;;;;;0.06;100.00;100869.09;5031551;28;20029;-71
2022/03/24 03:36:38;;;;;;;23.45;12.52;;;;;;;-0.12;100.00;100871.91;5031266;28;20039;-71
2022/03/24 03:39:04;;;;;;;23.48;12.10;;;;;;;-0.31;100.00;100859.66;5031441;28;20136;-70
2022/03/24 03:41:30;;;;;;;35.60;16.35;;;;;;;-0.65;100.00;100887.75;5031612;28;20032;-70
2022/03/24 03:43:56;;;;;;;23.00;12.68;;;;;;;-0.71;100.00;100859.28;5031306;28;20434;-71
2022/03/24 03:46:22;;;;;;;26.55;15.77;;;;;;;0.04;100.00;100856.53;5031444;28;20083;-71
2022/03/24 03:48:49;;;;;;;23.00;10.68;;;;;;;0.06;100.00;100901.56;5031183;28;20060;-70
2022/03/24 03:51:14;;;;;;;17.63;9.50;;;;;;;-0.45;100.00;100891.72;5029230;28;20179;-71
2022/03/24 03:53:41;;;;;;;18.38;9.88;;;;;;;0.06;100.00;100891.56;5030811;28;20108;-71
2022/03/24 03:56:09;;;;;;;15.15;8.30;;;;;;;-0.79;100.00;100863.19;5031041;28;20038;-66
2022/03/24 03:58:36;;;;;;;17.88;7.47;;;;;;;-0.39;100.00;100891.03;5030976;28;20025;-71
2022/03/24 04:01:05;;;;;;;17.73;7.35;;;;;;;-0.54;100.00;100890.59;5030992;28;20033;-71
2022/03/24 04:03:33;;;;;;;15.00;6.85;;;;;;;-0.55;100.00;100857.28;5030540;28;20046;-71
2022/03/24 04:06:01;;;;;;;14.85;7.00;;;;;;;-0.51;100.00;100865.69;5031160;28;20021;-70
2022/03/24 04:08:31;;;;;;;21.20;8.15;;;;;;;-0.39;100.00;100861.09;5031720;28;20033;-71
2022/03/24 04:10:57;;;;;;;17.83;9.10;;;;;;;-0.94;100.00;100838.56;5030314;28;20072;-71
2022/03/24 04:13:23;;;;;;;17.92;7.80;;;;;;;-0.05;100.00;100883.75;5031609;28;20033;-71
2022/03/24 04:15:52;;;;;;;16.70;7.72;;;;;;;-0.09;100.00;100879.47;5031607;28;20037;-71
2022/03/24 04:18:18;;;;;;;16.27;7.55;;;;;;;-0.04;100.00;100881.28;5031589;28;20060;-70
2022/03/24 04:20:44;;;;;;;18.83;7.90;;;;;;;-0.17;100.00;100894.25;5031008;28;20037;-70
2022/03/24 04:23:11;;;;;;;16.23;7.40;;;;;;;0.04;100.00;100875.69;5030556;28;20036;-71
2022/03/24 04:25:37;;;;;;;18.33;8.75;;;;;;;-0.02;100.00;100888.84;5030321;28;20030;-71
2022/03/24 04:28:06;;;;;;;16.65;10.25;;;;;;;0.01;100.00;100863.94;5031178;28;20052;-71
2022/03/24 04:30:33;;;;;;;20.45;11.38;;;;;;;0.05;100.00;100878.22;5030006;28;20112;-70
2022/03/24 04:32:58;;;;;;;22.50;12.60;;;;;;;0.01;100.00;100876.44;5031380;28;20044;-71
2022/03/24 04:35:24;;;;;;;30.52;13.35;;;;;;;0.23;100.00;100872.88;5030813;28;20490;-70
2022/03/24 04:37:50;;;;;;;27.10;13.02;;;;;;;0.18;100.00;100851.94;5029718;28;20437;-70
2022/03/24 04:40:17;;;;;;;24.05;11.93;;;;;;;0.17;100.00;100887.72;5030831;28;20124;-70
2022/03/24 04:42:45;;;;;;;24.02;11.68;;;;;;;0.03;100.00;100854.00;5029872;28;20065;-71
2022/03/24 04:45:13;;;;;;;16.88;10.52;;;;;;;0.15;100.00;100866.81;5031044;28;20036;-71
2022/03/24 04:47:39;;;;;;;19.15;9.40;;;;;;;0.80;100.00;100862.78;5029436;28;20033;-70
2022/03/24 04:50:05;;;;;;;20.65;8.98;;;;;;;0.46;100.00;100869.34;5031029;28;20431;-71
2022/03/24 04:52:31;;;;;;;16.17;9.60;;;;;;;0.49;100.00;100874.44;5030869;28;20041;-71
2022/03/24 04:54:58;;;;;;;17.48;9.60;;;;;;;0.15;100.00;100845.19;5030764;28;20065;-71
2022/03/24 04:57:24;;;;;;;19.48;9.27;;;;;;;0.09;100.00;100845.03;5029637;28;20040;-72
2022/03/24 04:59:49;;;;;;;17.08;9.45;;;;;;;0.56;100.00;100861.28;5030526;28;20025;-71
2022/03/24 05:02:17;;;;;;;18.75;7.88;;;;;;;0.62;100.00;100843.94;5030582;28;20088;-73
2022/03/24 05:04:43;;;;;;;19.10;8.43;;;;;;;0.97;100.00;100874.88;5030871;28;20033;-74
2022/03/24 05:07:11;;;;;;;16.27;8.02;;;;;;;0.80;100.00;100841.91;5029221;28;20175;-73
2022/03/24 05:09:37;;;;;;;19.77;8.70;;;;;;;0.92;100.00;100862.25;5030221;28;20053;-73
2022/03/24 05:12:04;;;;;;;20.95;8.88;;;;;;;1.10;100.00;100871.84;5030084;28;20134;-72
2022/03/24 05:14:33;;;;;;;25.77;11.65;;;;;;;0.83;100.00;100867.84;5029994;28;20135;-72
2022/03/24 05:16:59;;;;;;;25.95;10.95;;;;;;;1.16;100.00;100856.97;5029845;28;20034;-70
2022/03/24 05:19:25;;;;;;;38.08;19.50;;;;;;;0.60;100.00;100841.41;5029903;28;20029;-72
2022/03/24 05:21:51;;;;;;;32.92;16.45;;;;;;;1.11;100.00;100859.38;5029849;28;20032;-72
2022/03/24 05:24:17;;;;;;;24.20;13.23;;;;;;;1.77;100.00;100860.06;5029809;28;20044;-70
2022/03/24 05:26:42;;;;;;;26.25;13.73;;;;;;;1.23;100.00;100852.16;5029758;28;20029;-71
2022/03/24 05:29:08;;;;;;;22.15;10.82;;;;;;;1.48;100.00;100856.94;5030369;28;20031;-71
2022/03/24 05:31:34;;;;;;;34.95;16.38;;;;;;;1.66;100.00;100848.97;5028158;28;20033;-70
2022/03/24 05:33:59;;;;;;;21.10;11.25;;;;;;;4.46;100.00;100820.00;5026332;28;20104;-71
2022/03/24 05:36:25;;;;;;;23.42;12.10;;;;;;;2.91;100.00;100853.06;5020852;28;20022;-73
2022/03/24 05:38:51;;;;;;;24.55;12.73;;;;;;;2.17;100.00;100842.53;5027534;28;20146;-70
2022/03/24 05:41:17;;;;;;;29.55;12.48;;;;;;;3.05;100.00;100857.47;5028129;28;20037;-69
2022/03/24 05:44:02;;;;;;;29.40;13.77;;;;;;;3.34;100.00;100846.25;5028930;28;20026;-70
2022/03/24 05:46:35;;;;;;;25.63;14.02;;;;;;;3.65;100.00;100849.19;5027789;28;20083;-70
2022/03/24 05:49:03;;;;;;;22.35;11.82;;;;;;;2.66;100.00;100819.16;5030854;28;20029;-70
2022/03/24 05:51:28;;;;;;;30.25;14.57;;;;;;;3.68;100.00;100839.19;5031631;28;20039;-70
2022/03/24 05:53:54;;;;;;;26.02;12.73;;;;;;;3.56;97.46;100778.69;5032752;28;20033;-70
2022/03/24 05:56:19;;;;;;;25.95;13.93;;;;;;;3.74;98.07;100840.13;5032378;28;20026;-70
2022/03/24 05:58:46;;;;;;;29.10;16.25;;;;;;;3.97;96.19;100826.16;5013439;28;20029;-70
2022/03/24 06:01:12;;;;;;;32.00;15.43;;;;;;;3.80;93.11;100827.63;5012779;28;20033;-70
2022/03/24 06:03:37;;;;;;;44.67;22.05;;;;;;;4.02;94.18;100827.03;5013165;28;20053;-69
2022/03/24 06:06:06;;;;;;;44.35;20.70;;;;;;;4.75;94.36;100831.22;5012960;28;20415;-70
2022/03/24 06:08:33;;;;;;;53.83;25.73;;;;;;;4.57;90.43;100838.59;5012960;28;20095;-71
2022/03/24 06:11:00;;;;;;;49.15;25.90;;;;;;;4.81;90.65;100832.94;5012939;28;20125;-70
2022/03/24 06:13:26;;;;;;;29.73;13.73;;;;;;;4.60;88.10;100795.81;5028381;28;20483;-70
2022/03/24 06:15:52;;;;;;;17.45;6.43;;;;;;;4.55;88.82;100839.38;5013708;28;20037;-69
2022/03/24 06:18:18;;;;;;;19.52;6.32;;;;;;;4.43;89.17;100824.16;5013560;28;20452;-70
2022/03/24 06:20:43;;;;;;;14.60;5.70;;;;;;;4.51;86.26;100800.75;5013891;28;20052;-70
2022/03/24 06:23:09;;;;;;;11.45;5.53;;;;;;;5.40;82.30;100835.91;5013283;28;20034;-71
2022/03/24 06:25:37;;;;;;;17.20;6.63;;;;;;;5.72;82.66;100825.19;5013388;28;20041;-70
2022/03/24 06:28:04;;;;;;;15.27;5.47;;;;;;;5.02;80.18;100823.88;5028016;28;20108;-70
2022/03/24 06:30:29;;;;;;;17.15;5.93;;;;;;;4.46;88.09;100830.06;5013265;28;20116;-69
2022/03/24 06:32:56;;;;;;;13.60;5.40;;;;;;;5.76;83.19;100795.78;5013326;28;20168;-70
2022/03/24 06:35:22;;;;;;;19.85;5.90;;;;;;;6.26;78.13;100813.66;5013108;28;20088;-70
2022/03/24 06:37:48;;;;;;;17.10;6.65;;;;;;;6.60;75.56;100770.78;5013154;28;20026;-69
2022/03/24 06:40:14;;;;;;;27.08;12.25;;;;;;;5.65;74.40;100780.59;5012989;28;20072;-70
2022/03/24 06:42:41;;;;;;;18.45;7.32;;;;;;;7.11;73.06;100804.50;5012933;28;20041;-70
2022/03/24 06:45:07;;;;;;;18.50;7.85;;;;;;;6.72;70.45;100806.16;5013145;28;20517;-70
2022/03/24 06:47:34;;;;;;;19.10;6.43;;;;;;;6.55;67.61;100786.78;5012823;28;20040;-71
2022/03/24 06:49:59;;;;;;;25.42;12.52;;;;;;;6.69;70.80;100787.66;5012967;28;20381;-70
2022/03/24 06:52:25;;;;;;;16.73;8.90;;;;;;;6.42;68.71;100806.13;5012786;28;20029;-71
2022/03/24 06:54:50;;;;;;;19.17;6.97;;;;;;;6.79;69.74;100772.47;5012581;28;20029;-70
2022/03/24 06:57:16;;;;;;;14.02;5.75;;;;;;;7.96;65.94;100773.06;5012600;28;20119;-70
2022/03/24 06:59:42;;;;;;;17.42;7.90;;;;;;;8.64;64.68;100793.78;5027409;28;20030;-70
2022/03/24 07:02:08;;;;;;;15.95;7.00;;;;;;;7.61;64.60;100747.03;5012411;28;20077;-70
2022/03/24 07:04:34;;;;;;;25.55;13.98;;;;;;;7.22;66.84;100802.78;5012171;28;20065;-69
2022/03/24 07:07:00;;;;;;;12.57;6.38;;;;;;;7.25;69.59;100764.88;5027636;28;20026;-70
2022/03/24 07:09:26;;;;;;;13.15;5.30;;;;;;;8.31;65.06;100760.22;5012496;28;20037;-69
2022/03/24 07:11:51;;;;;;;17.73;6.40;;;;;;;7.92;66.37;100763.81;5011899;28;20531;-70
2022/03/24 07:14:17;;;;;;;15.35;7.38;;;;;;;8.27;66.76;100767.03;5027931;28;20038;-70
2022/03/24 07:16:42;;;;;;;27.60;12.48;;;;;;;8.70;64.83;100778.53;5012524;28;20460;-71
2022/03/24 07:19:09;;;;;;;26.27;13.07;;;;;;;9.25;63.62;100745.91;5027691;28;20033;-70
2022/03/24 07:21:35;;;;;;;25.13;10.15;;;;;;;8.89;64.35;100780.94;5012340;28;20049;-71
2022/03/24 07:24:01;;;;;;;17.67;7.45;;;;;;;8.98;63.53;100769.00;5011963;28;20053;-70
2022/03/24 07:26:26;;;;;;;20.80;8.23;;;;;;;10.19;60.50;100737.19;5011849;28;20133;-70
2022/03/24 07:28:52;;;;;;;20.48;7.28;;;;;;;9.96;60.05;100724.78;5012049;28;20045;-69
2022/03/24 07:31:19;;;;;;;18.75;8.95;;;;;;;9.31;61.02;100745.03;5012182;28;20037;-69
2022/03/24 07:33:45;;;;;;;13.60;6.85;;;;;;;10.00;59.22;100741.63;5027111;28;20037;-70
2022/03/24 07:36:11;;;;;;;14.10;6.32;;;;;;;11.07;57.73;100739.16;5011795;28;20026;-71
2022/03/24 07:38:37;;;;;;;18.08;8.73;;;;;;;11.08;57.52;100749.31;5012014;28;20037;-71
2022/03/24 07:41:02;;;;;;;20.50;8.40;;;;;;;10.70;57.27;100720.28;5011224;28;20041;-70
2022/03/24 07:43:28;;;;;;;18.15;7.38;;;;;;;10.83;56.98;100716.69;5011508;28;20026;-70
2022/03/24 07:45:53;;;;;;;19.73;6.90;;;;;;;11.57;56.76;100743.31;5011919;28;20030;-70
2022/03/24 07:48:25;;;;;;;21.63;9.68;;;;;;;10.46;58.41;100745.25;5011435;28;20038;-70
2022/03/24 07:50:55;;;;;;;22.50;8.93;;;;;;;10.70;59.62;100710.94;5011908;28;20429;-71
2022/03/24 07:53:34;;;;;;;19.30;9.52;;;;;;;12.03;57.89;100738.94;5011294;28;20396;-70
2022/03/24 07:56:00;;;;;;;18.63;9.80;;;;;;;12.25;55.73;100734.22;5011818;28;20026;-71
2022/03/24 07:58:26;;;;;;;18.83;7.85;;;;;;;12.48;57.32;100719.25;5011681;28;20360;-69
2022/03/24 08:00:52;;;;;;;25.30;10.27;;;;;;;12.61;55.75;100721.47;5011434;28;20025;-71
2022/03/24 08:03:20;;;;;;;82.35;47.00;;;;;;;13.00;55.54;100709.41;5011049;28;20045;-69
2022/03/24 08:05:47;;;;;;;28.85;12.15;;;;;;;12.31;56.07;100668.63;5011113;28;20065;-69
2022/03/24 08:08:14;;;;;;;38.92;17.75;;;;;;;14.00;54.29;100693.81;5011138;28;20124;-70
2022/03/24 08:10:45;;;;;;;22.55;11.40;;;;;;;13.61;53.17;100689.00;5011435;28;20115;-70
2022/03/24 08:13:13;;;;;;;31.17;14.33;;;;;;;13.96;53.41;100698.19;5011079;28;20038;-70
2022/03/24 08:15:39;;;;;;;23.58;7.97;;;;;;;12.93;56.70;100679.81;5011267;28;20408;-71
2022/03/24 08:18:06;;;;;;;24.88;9.60;;;;;;;13.83;54.68;100686.63;5011177;28;20041;-70
2022/03/24 08:20:32;;;;;;;19.63;8.63;;;;;;;13.40;55.66;100688.75;5010777;28;20025;-70
2022/03/24 08:22:58;;;;;;;19.55;8.10;;;;;;;13.46;55.67;100683.47;5011279;28;20508;-70
2022/03/24 08:25:24;;;;;;;19.55;8.70;;;;;;;14.68;53.18;100672.00;5011437;28;20140;-71
2022/03/24 08:27:49;;;;;;;16.88;7.20;;;;;;;14.46;53.94;100658.28;5010620;28;20046;-71
2022/03/24 08:30:15;;;;;;;12.43;6.78;;;;;;;14.17;53.63;100642.97;5010957;28;20032;-71
2022/03/24 08:32:41;;;;;;;11.15;6.30;;;;;;;15.60;52.71;100674.69;5010978;28;20033;-71
2022/03/24 08:35:07;;;;;;;14.52;7.60;;;;;;;15.72;50.59;100662.31;5010622;28;20526;-70
2022/03/24 08:37:32;;;;;;;18.33;6.85;;;;;;;14.64;51.89;100632.03;5010858;28;20124;-70
2022/03/24 08:39:58;;;;;;;13.75;6.85;;;;;;;14.72;51.44;100636.03;5010916;28;20065;-71
2022/03/24 08:42:23;;;;;;;20.00;10.45;;;;;;;15.80;49.94;100644.91;5010858;28;20076;-70
2022/03/24 08:44:49;;;;;;;12.73;7.07;;;;;;;15.31;50.39;100651.81;5011258;28;20029;-70
2022/03/24 08:47:15;;;;;;;14.00;6.40;;;;;;;14.57;50.31;100646.78;5010868;28;20037;-71
2022/03/24 08:49:41;;;;;;;15.82;7.10;;;;;;;15.15;50.40;100652.44;5010367;28;20056;-71
2022/03/24 08:52:08;;;;;;;13.55;6.55;;;;;;;17.21;47.94;100646.66;5011161;28;20488;-70
2022/03/24 08:54:34;;;;;;;17.27;7.97;;;;;;;16.86;47.47;100626.81;5010784;28;20456;-68
2022/03/24 08:57:00;;;;;;;11.93;6.70;;;;;;;15.70;48.36;100639.28;5010588;28;20556;-68
2022/03/24 08:59:25;;;;;;;17.77;9.85;;;;;;;16.74;47.68;100635.03;5010856;28;20057;-68
2022/03/24 09:01:51;;;;;;;16.63;7.10;;;;;;;17.11;46.35;100631.72;5010533;28;20030;-70
2022/03/24 09:04:18;;;;;;;14.43;7.40;;;;;;;17.80;47.39;100618.25;5010365;28;20491;-68
2022/03/24 09:06:44;;;;;;;17.33;7.82;;;;;;;18.52;45.34;100575.19;5010658;28;20026;-68
2022/03/24 09:09:10;;;;;;;19.38;8.85;;;;;;;18.49;43.37;100624.31;5010648;28;20085;-68
2022/03/24 09:11:35;;;;;;;18.00;7.90;;;;;;;18.03;43.21;100583.69;5010475;28;20113;-68
2022/03/24 09:14:00;;;;;;;13.52;8.40;;;;;;;19.03;40.66;100597.47;5010548;28;20026;-68
2022/03/24 09:16:26;;;;;;;19.85;10.63;;;;;;;19.39;39.67;100587.75;5010612;28;20034;-68
2022/03/24 09:18:51;;;;;;;20.45;13.40;;;;;;;18.19;40.34;100600.88;5010506;28;20034;-68
2022/03/24 09:21:17;;;;;;;27.25;13.93;;;;;;;17.69;41.27;100560.50;5010634;28;20112;-68
2022/03/24 09:23:43;;;;;;;15.48;9.40;;;;;;;19.69;39.61;100595.56;5011748;28;20029;-68
2022/03/24 09:26:08;;;;;;;17.15;9.23;;;;;;;19.21;39.35;100600.81;5014415;28;20081;-68
2022/03/24 09:28:34;;;;;;;25.83;10.60;;;;;;;18.80;37.99;100580.59;5014265;28;20487;-71
2022/03/24 09:31:00;;;;;;;38.67;22.55;;;;;;;19.19;34.40;100602.63;5014373;28;20034;-68
2022/03/24 09:33:25;;;;;;;16.35;10.68;;;;;;;19.04;33.71;100565.59;5013747;28;20036;-67
2022/03/24 09:35:51;;;;;;;15.90;11.35;;;;;;;19.10;32.83;100560.13;5014338;28;20034;-68
2022/03/24 09:38:17;;;;;;;19.23;10.80;;;;;;;19.65;32.86;100594.91;5013994;28;20451;-68
2022/03/24 09:40:43;;;;;;;18.90;12.93;;;;;;;20.45;32.34;100564.50;5013599;28;20121;-67
2022/03/24 09:43:08;;;;;;;20.73;11.95;;;;;;;19.68;32.61;100570.69;5028953;28;20076;-68
2022/03/24 09:45:34;;;;;;;16.08;11.15;;;;;;;19.17;32.75;100555.47;5013484;28;20034;-68
2022/03/24 09:48:00;;;;;;;28.15;16.95;;;;;;;19.61;32.85;100574.56;5013335;28;20099;-68
2022/03/24 09:50:27;;;;;;;17.45;10.70;;;;;;;19.45;32.88;100578.88;5013647;28;20038;-69
2022/03/24 09:52:53;;;;;;;23.85;13.90;;;;;;;19.46;32.47;100563.31;5013511;28;20030;-69
2022/03/24 09:55:19;;;;;;;29.40;16.95;;;;;;;20.17;32.58;100556.66;5013138;28;20140;-68
2022/03/24 09:57:47;;;;;;;15.73;10.88;;;;;;;19.71;31.95;100568.78;5013387;28;20041;-68
2022/03/24 10:00:13;;;;;;;16.02;10.85;;;;;;;20.00;32.43;100558.56;5013477;28;20084;-68
2022/03/24 10:02:39;;;;;;;16.83;11.68;;;;;;;20.08;32.50;100546.03;5013037;28;20045;-68
2022/03/24 10:05:07;;;;;;;36.90;20.05;;;;;;;19.62;32.65;100533.19;5013639;28;20120;-71
2022/03/24 10:07:45;;;;;;;19.88;11.65;;;;;;;19.40;32.70;100557.66;5013369;28;20400;-66
2022/03/24 10:10:25;;;;;;;26.33;13.70;;;;;;;20.52;32.13;100541.72;5013643;28;20030;-68
2022/03/24 10:12:51;;;;;;;17.45;11.45;;;;;;;19.86;31.95;100562.75;5028561;28;20041;-67
2022/03/24 10:15:17;;;;;;;16.02;9.95;;;;;;;19.66;32.32;100549.31;5013073;28;20531;-68
2022/03/24 10:17:51;;;;;;;21.30;13.70;;;;;;;20.85;31.24;100549.16;5013518;28;20072;-71
2022/03/24 10:20:17;;;;;;;25.27;15.65;;;;;;;20.03;31.58;100553.19;5013190;28;20037;-67
2022/03/24 10:23:15;;;;;;;16.98;10.15;;;;;;;19.73;31.58;100566.94;5028555;28;20172;-68
2022/03/24 10:25:42;;;;;;;15.23;10.07;;;;;;;20.53;31.48;100564.03;4990238;28;20077;-68
2022/03/24 10:28:19;;;;;;;21.38;12.27;;;;;;;20.43;31.50;100527.56;5013284;28;20128;-68
2022/03/24 10:30:51;;;;;;;12.65;9.48;;;;;;;20.86;31.31;100543.88;5013127;28;20032;-69
2022/03/24 10:33:39;;;;;;;14.20;9.40;;;;;;;19.81;32.18;100551.00;5013136;28;20112;-68
2022/03/24 10:36:06;;;;;;;67.22;34.55;;;;;;;20.76;31.72;100516.13;5012631;28;20026;-69
2022/03/24 10:38:32;;;;;;;19.77;13.55;;;;;;;20.96;31.58;100515.72;5013266;28;20097;-68
2022/03/24 10:41:12;;;;;;;19.45;12.35;;;;;;;20.12;31.84;100521.69;5013197;28;20029;-69
2022/03/24 10:43:38;;;;;;;16.58;11.27;;;;;;;20.83;31.67;100545.84;5012965;28;20030;-68
2022/03/24 10:46:12;;;;;;;19.75;13.85;;;;;;;20.66;31.24;100523.59;5028070;28;20033;-68
2022/03/24 10:48:38;;;;;;;15.30;9.98;;;;;;;20.30;31.48;100512.91;5027888;28;20041;-68
2022/03/24 10:51:04;;;;;;;17.25;10.93;;;;;;;20.36;30.67;100490.09;5012947;28;20459;-68
2022/03/24 10:53:38;;;;;;;14.85;10.65;;;;;;;20.51;30.85;100514.19;5012544;28;20022;-69
2022/03/24 10:56:11;;;;;;;20.85;13.70;;;;;;;21.16;30.50;100515.34;5027962;28;20026;-68
2022/03/24 10:58:42;;;;;;;18.48;12.43;;;;;;;21.15;30.68;100529.22;5012603;28;20033;-66
2022/03/24 11:01:12;;;;;;;;;;;;;;;20.50;30.91;100522.88;5012807;28;20022;-68
2022/03/24 11:03:39;;;;;;;14.43;10.18;;;;;;;20.74;30.98;100522.22;5012349;28;19917;-68
2022/03/24 11:06:05;;;;;;;12.85;9.93;;;;;;;21.74;30.67;100515.84;5012329;28;20485;-69
2022/03/24 11:08:31;;;;;;;16.63;10.38;;;;;;;21.21;30.60;100496.03;5012396;28;20042;-69
2022/03/24 11:10:56;;;;;;;14.82;9.82;;;;;;;20.59;30.33;100492.16;5012411;28;20038;-69
2022/03/24 11:13:27;;;;;;;14.88;10.32;;;;;;;21.39;29.48;100479.31;5012085;28;20037;-69